Time;durP1;ratioP1;P1;durP2;ratioP2;P2;SDS_P1;SDS_P2;PMS_P1;PMS_P2;Temp;Humidity;BMP_temperature;BMP_pressure;BME280_temperature;BME280_humidity;BME280_pressure;Samples;Min_cycle;Max_cycle;Signal;HPM_P1;HPM_P2
2022/01/12 00:02:12;;;;;;;;;;;4.80;41.80;;;;;;5075717;28;19909;-71
2022/01/12 00:04:38;;;;;;;;;;;4.70;41.60;;;;;;5075964;28;19923;-70
2022/01/12 00:07:04;;;;;;;;;;;4.70;41.70;;;;;;5075364;28;19912;-71
2022/01/12 00:09:30;;;;;;;;;;;4.80;41.60;;;;;;5075802;28;19961;-68
2022/01/12 00:11:55;;;;;;;;;;;4.80;41.40;;;;;;5075662;28;20322;-66
2022/01/12 00:14:21;;;;;;;;;;;4.80;41.60;;;;;;5075554;28;19909;-70
2022/01/12 00:16:48;;;;;;;;;;;4.80;40.90;;;;;;5075500;28;19999;-71
2022/01/12 00:19:14;;;;;;;;;;;4.80;40.90;;;;;;5075563;28;20275;-63
2022/01/12 00:21:40;;;;;;;;;;;4.90;40.50;;;;;;5075441;28;19909;-68
2022/01/12 00:24:07;;;;;;;;;;;4.80;40.00;;;;;;5075216;28;19947;-65
2022/01/12 00:34:27;;;;;;;;;;;4.90;40.20;;;;;;5075287;28;19916;-67
2022/01/12 00:36:53;;;;;;;;;;;4.90;39.60;;;;;;5075207;28;19908;-65
2022/01/12 00:39:18;;;;;;;;;;;4.90;39.50;;;;;;5075155;28;19991;-67
2022/01/12 00:41:44;;;;;;;;;;;4.90;39.70;;;;;;5074904;28;19913;-68
2022/01/12 00:44:11;;;;;;;;;;;4.90;39.70;;;;;;5074925;28;19950;-69
2022/01/12 00:46:38;;;;;;;;;;;4.90;40.00;;;;;;5073559;28;20372;-71
2022/01/12 00:49:04;;;;;;;;;;;4.80;40.40;;;;;;5074916;28;19954;-69
2022/01/12 00:51:33;;;;;;;;;;;4.90;40.70;;;;;;5074766;28;19916;-72
2022/01/12 00:54:00;;;;;;;;;;;4.80;41.00;;;;;;5074522;28;19912;-71
2022/01/12 00:56:25;;;;;;;;;;;4.80;41.40;;;;;;5074823;28;19908;-71
2022/01/12 00:58:51;;;;;;;;;;;4.80;41.40;;;;;;5074575;28;20267;-72
2022/01/12 01:01:18;;;;;;;;;;;4.70;41.10;;;;;;5074683;28;20423;-69
2022/01/12 01:03:43;;;;;;;;;;;4.70;41.60;;;;;;5074621;28;20264;-72
2022/01/12 01:06:11;;;;;;;;;;;4.60;41.60;;;;;;5074523;28;19916;-62
2022/01/12 01:08:37;;;;;;;;;;;4.70;41.80;;;;;;5074736;28;19947;-63
2022/01/12 01:11:02;;;;;;;;;;;4.70;41.60;;;;;;5072808;28;19951;-62
2022/01/12 01:13:34;;;;;;;;;;;4.60;41.50;;;;;;5074339;28;19909;-66
2022/01/12 01:16:17;;;;;;;;;;;4.60;41.50;;;;;;5074372;28;19909;-62
2022/01/12 01:26:55;;;;;;;;;;;4.50;42.70;;;;;;5074494;28;20030;-63
2022/01/12 01:29:21;;;;;;;;;;;4.50;42.40;;;;;;5073912;28;19952;-69
2022/01/12 01:31:47;;;;;;;;;;;4.50;43.10;;;;;;5073743;28;20011;-69
2022/01/12 01:34:14;;;;;;;;;;;4.50;43.30;;;;;;5073830;28;19908;-69
2022/01/12 01:36:50;;;;;;;;;;;4.40;43.40;;;;;;5073935;28;19909;-63
2022/01/12 01:39:18;;;;;;;;;;;4.30;44.10;;;;;;5074125;28;19948;-62
2022/01/12 01:41:48;;;;;;;;;;;4.20;44.50;;;;;;5073968;28;19974;-63
2022/01/12 01:54:53;;;;;;;;;;;4.20;44.70;;;;;;5084168;28;20004;-62
2022/01/12 01:57:19;;;;;;;;;;;4.10;44.60;;;;;;5090553;28;19957;-62
2022/01/12 01:59:45;;;;;;;;;;;4.10;44.60;;;;;;5079268;28;19908;-63
2022/01/12 02:02:11;;;;;;;;;;;4.20;44.60;;;;;;5087043;28;19908;-64
2022/01/12 02:04:37;;;;;;;;;;;4.20;43.60;;;;;;5085822;28;19943;-64
2022/01/12 02:07:02;;;;;;;;;;;4.20;43.90;;;;;;5073501;28;19908;-62
2022/01/12 02:09:28;;;;;;;;;;;4.30;44.20;;;;;;5073611;28;20443;-62
2022/01/12 02:11:54;;;;;;;;;;;4.30;43.60;;;;;;5073746;28;19917;-62
2022/01/12 02:14:20;;;;;;;;;;;4.40;43.80;;;;;;5073164;28;20360;-66
2022/01/12 02:17:04;;;;;;;;;;;4.30;43.50;;;;;;5073713;28;20314;-62
2022/01/12 02:35:56;;;;;;;;;;;4.30;42.50;;;;;;5073446;28;19935;-68
2022/01/12 02:41:06;;;;;;;;;;;4.30;42.40;;;;;;5073211;28;19962;-66
2022/01/12 02:53:51;;;;;;;;;;;4.20;42.60;;;;;;5072907;28;19909;-65
2022/01/12 02:56:24;;;;;;;;;;;4.20;42.70;;;;;;5073066;28;20414;-62
2022/01/12 02:58:51;;;;;;;;;;;4.20;42.70;;;;;;5072739;28;19913;-63
2022/01/12 03:03:45;;;;;;;;;;;4.30;42.50;;;;;;5073086;28;19962;-62
2022/01/12 03:06:16;;;;;;;;;;;4.30;42.60;;;;;;5072983;28;19916;-63
2022/01/12 03:08:42;;;;;;;;;;;4.20;42.60;;;;;;5073126;28;20374;-63
2022/01/12 03:11:08;;;;;;;;;;;4.30;42.20;;;;;;5072757;28;19959;-62
2022/01/12 03:13:35;;;;;;;;;;;4.40;42.30;;;;;;5074822;28;19909;-62
2022/01/12 03:16:02;;;;;;;;;;;4.40;42.30;;;;;;5076944;28;20332;-62
2022/01/12 03:18:28;;;;;;;;;;;4.30;41.80;;;;;;5075298;28;19941;-62
2022/01/12 03:20:53;;;;;;;;;;;4.40;42.20;;;;;;5076822;28;19909;-63
2022/01/12 03:23:19;;;;;;;;;;;4.40;42.50;;;;;;5076445;28;20383;-65
2022/01/12 03:25:44;;;;;;;;;;;4.40;42.10;;;;;;5076558;28;19948;-64
2022/01/12 03:28:10;;;;;;;;;;;4.40;41.90;;;;;;5076535;28;19909;-65
2022/01/12 03:30:47;;;;;;;;;;;4.40;41.80;;;;;;5076132;28;20474;-65
2022/01/12 03:33:31;;;;;;;;;;;4.40;41.60;;;;;;5076300;28;19915;-63
2022/01/12 03:36:24;;;;;;;;;;;4.40;41.70;;;;;;5076568;28;19954;-65
2022/01/12 03:38:50;;;;;;;;;;;4.40;41.90;;;;;;5076291;28;19908;-62
2022/01/12 03:41:16;;;;;;;;;;;4.30;41.80;;;;;;5076136;28;20403;-63
2022/01/12 03:43:42;;;;;;;;;;;4.40;41.90;;;;;;5076090;28;19909;-64
2022/01/12 03:46:08;;;;;;;;;;;4.30;41.90;;;;;;5076202;28;20308;-63
2022/01/12 03:48:33;;;;;;;;;;;4.30;42.10;;;;;;5076190;28;19908;-65
2022/01/12 03:50:59;;;;;;;;;;;4.30;41.90;;;;;;5074609;28;19920;-62
2022/01/12 03:53:24;;;;;;;;;;;4.30;42.20;;;;;;5075975;28;19908;-65
2022/01/12 03:55:50;;;;;;;;;;;4.30;42.20;;;;;;5075848;28;19908;-63
2022/01/12 03:58:16;;;;;;;;;;;4.30;42.00;;;;;;5075976;28;19909;-62
2022/01/12 04:00:41;;;;;;;;;;;4.20;42.10;;;;;;5076012;28;19916;-70
2022/01/12 04:03:08;;;;;;;;;;;4.20;42.10;;;;;;5075728;28;19955;-66
2022/01/12 04:08:19;;;;;;;;;;;4.30;41.90;;;;;;5075774;28;19912;-68
2022/01/12 04:10:45;;;;;;;;;;;4.30;42.10;;;;;;5075605;28;19916;-70
2022/01/12 04:13:11;;;;;;;;;;;4.10;42.40;;;;;;5075355;28;19923;-70
2022/01/12 04:15:37;;;;;;;;;;;4.10;42.50;;;;;;5075837;28;20413;-69
2022/01/12 04:18:02;;;;;;;;;;;4.10;42.70;;;;;;5075684;28;19959;-71
2022/01/12 04:20:28;;;;;;;;;;;4.10;42.90;;;;;;5075315;28;19917;-67
2022/01/12 04:25:38;;;;;;;;;;;4.00;43.00;;;;;;5075017;28;20069;-66
2022/01/12 04:28:03;;;;;;;;;;;4.00;42.70;;;;;;5075357;28;20366;-69
2022/01/12 04:30:29;;;;;;;;;;;3.90;43.10;;;;;;5074926;28;20426;-68
2022/01/12 04:32:54;;;;;;;;;;;3.90;42.70;;;;;;5075246;28;19908;-70
2022/01/12 04:35:24;;;;;;;;;;;4.00;42.70;;;;;;5074926;28;19943;-70
2022/01/12 04:37:51;;;;;;;;;;;4.00;42.40;;;;;;5075087;28;19947;-68
2022/01/12 04:40:16;;;;;;;;;;;4.10;42.00;;;;;;5075169;28;19909;-71
2022/01/12 04:42:42;;;;;;;;;;;4.10;41.70;;;;;;5074907;28;19915;-69
2022/01/12 04:45:18;;;;;;;;;;;4.10;41.40;;;;;;5074786;28;20394;-68
2022/01/12 04:48:00;;;;;;;;;;;4.10;41.70;;;;;;5074700;28;19912;-70
2022/01/12 04:50:28;;;;;;;;;;;4.10;41.80;;;;;;5074966;28;19995;-70
2022/01/12 04:52:53;;;;;;;;;;;4.20;41.10;;;;;;5074973;28;20042;-71
2022/01/12 04:55:19;;;;;;;;;;;4.20;41.50;;;;;;5074652;28;20383;-68
2022/01/12 04:57:45;;;;;;;;;;;4.30;40.90;;;;;;5074858;28;20394;-70
2022/01/12 05:00:16;;;;;;;;;;;4.30;40.20;;;;;;5074607;28;20283;-69
2022/01/12 05:08:34;;;;;;;;;;;4.50;39.70;;;;;;5074734;28;19922;-63
2022/01/12 05:13:46;;;;;;;;;;;4.60;38.90;;;;;;5074601;28;19958;-63
2022/01/12 05:16:12;;;;;;;;;;;4.60;38.90;;;;;;5074702;28;19908;-64
2022/01/12 05:18:39;;;;;;;;;;;4.60;38.10;;;;;;5074217;28;20345;-64
2022/01/12 05:21:05;;;;;;;;;;;4.70;38.10;;;;;;5074168;28;19954;-64
2022/01/12 05:23:31;;;;;;;;;;;4.70;38.40;;;;;;5074199;28;19914;-63
2022/01/12 05:25:56;;;;;;;;;;;4.60;38.70;;;;;;5074218;28;19909;-70
2022/01/12 05:28:23;;;;;;;;;;;4.60;37.70;;;;;;5073887;28;19909;-70
2022/01/12 05:30:49;;;;;;;;;;;4.70;37.90;;;;;;5073851;28;20341;-72
2022/01/12 05:33:15;;;;;;;;;;;4.80;37.40;;;;;;5073899;28;19916;-69
2022/01/12 05:35:42;;;;;;;;;;;4.70;37.80;;;;;;5073107;28;19908;-70
2022/01/12 05:38:09;;;;;;;;;;;4.80;37.90;;;;;;5073925;28;19912;-70
2022/01/12 05:40:34;;;;;;;;;;;4.70;37.40;;;;;;5073622;28;19978;-70
2022/01/12 05:43:01;;;;;;;;;;;4.60;37.50;;;;;;5073828;28;20371;-68
2022/01/12 05:45:27;;;;;;;;;;;4.60;38.30;;;;;;5073748;28;19908;-71
2022/01/12 05:50:19;;;;;;;;;;;4.70;38.00;;;;;;5073379;28;20414;-71
2022/01/12 05:52:45;;;;;;;;;;;4.70;37.80;;;;;;5073657;28;19955;-67
2022/01/12 05:55:12;;;;;;;;;;;4.50;38.50;;;;;;5073511;28;19909;-64
2022/01/12 05:57:38;;;;;;;;;;;4.50;38.40;;;;;;5073610;28;19978;-70
2022/01/12 06:00:05;;;;;;;;;;;4.60;38.80;;;;;;5073308;28;20356;-66
2022/01/12 06:02:31;;;;;;;;;;;4.60;38.80;;;;;;5073535;28;20391;-64
2022/01/12 06:04:56;;;;;;;;;;;4.80;38.90;;;;;;5073262;28;19908;-68
2022/01/12 06:07:22;;;;;;;;;;;4.80;38.30;;;;;;5073404;28;20003;-70
2022/01/12 06:09:47;;;;;;;;;;;4.70;38.30;;;;;;5073565;28;20371;-66
2022/01/12 06:12:13;;;;;;;;;;;4.60;38.80;;;;;;5073385;28;19916;-70
2022/01/12 06:14:40;;;;;;;;;;;4.50;38.40;;;;;;5073648;28;20070;-66
2022/01/12 06:17:06;;;;;;;;;;;4.40;38.70;;;;;;5073421;28;20391;-70
2022/01/12 06:19:31;;;;;;;;;;;4.40;38.30;;;;;;5073667;28;20011;-63
2022/01/12 06:21:57;;;;;;;;;;;4.30;38.90;;;;;;5073474;28;19955;-67
2022/01/12 06:24:22;;;;;;;;;;;4.30;39.20;;;;;;5071685;28;19909;-68
2022/01/12 06:26:48;;;;;;;;;;;4.30;40.70;;;;;;5073168;28;19912;-69
2022/01/12 06:31:47;;;;;;;;;;;4.40;39.00;;;;;;5072762;28;20311;-69
2022/01/12 06:34:13;;;;;;;;;;;4.40;38.50;;;;;;5072842;28;19951;-70
2022/01/12 06:36:39;;;;;;;;;;;4.50;38.90;;;;;;5072967;28;20387;-72
2022/01/12 06:39:09;;;;;;;;;;;4.50;38.50;;;;;;5073286;28;20322;-67
2022/01/12 06:41:36;;;;;;;;;;;4.40;38.90;;;;;;5073550;28;20002;-68
2022/01/12 06:44:02;;;;;;;;;;;4.20;39.60;;;;;;5073271;28;19908;-71
2022/01/12 06:46:30;;;;;;;;;;;4.10;39.70;;;;;;5073318;28;19954;-65
2022/01/12 06:48:55;;;;;;;;;;;4.10;39.90;;;;;;5077281;28;19909;-64
2022/01/12 06:51:21;;;;;;;;;;;4.00;40.50;;;;;;5077215;28;19924;-68
2022/01/12 06:53:47;;;;;;;;;;;4.00;40.90;;;;;;5077285;28;20356;-67
2022/01/12 06:56:15;;;;;;;;;;;3.90;41.40;;;;;;5077175;28;20352;-63
2022/01/12 06:58:42;;;;;;;;;;;3.90;41.80;;;;;;5077306;28;19921;-66
2022/01/12 07:01:07;;;;;;;;;;;4.10;46.10;;;;;;5077056;28;19909;-64
2022/01/12 07:03:33;;;;;;;;;;;4.50;46.70;;;;;;5076675;28;19920;-68
2022/01/12 07:05:58;;;;;;;;;;;4.60;44.30;;;;;;5077375;28;19916;-72
2022/01/12 07:08:24;;;;;;;;;;;4.30;44.80;;;;;;5077130;28;19908;-71
2022/01/12 07:10:49;;;;;;;;;;;4.30;43.40;;;;;;5078058;28;20348;-71
2022/01/12 07:13:15;;;;;;;;;;;4.40;43.60;;;;;;5077435;28;19919;-65
2022/01/12 07:15:41;;;;;;;;;;;4.80;44.10;;;;;;5076263;28;19908;-65
2022/01/12 07:18:07;;;;;;;;;;;4.50;43.30;;;;;;5076542;28;20418;-65
2022/01/12 07:20:33;;;;;;;;;;;5.10;45.20;;;;;;5076369;28;19908;-69
2022/01/12 07:22:58;;;;;;;;;;;4.60;41.40;;;;;;5076695;28;20390;-67
2022/01/12 07:25:24;;;;;;;;;;;4.30;41.40;;;;;;5077202;28;20372;-68
2022/01/12 07:27:50;;;;;;;;;;;3.80;42.50;;;;;;5076613;28;19999;-65
2022/01/12 07:30:15;;;;;;;;;;;3.80;43.50;;;;;;5075898;28;20050;-67
2022/01/12 07:32:41;;;;;;;;;;;3.60;43.00;;;;;;5076525;28;19913;-69
2022/01/12 07:35:07;;;;;;;;;;;3.50;43.70;;;;;;5076640;28;20370;-71
2022/01/12 07:37:32;;;;;;;;;;;3.40;44.00;;;;;;5075174;28;20336;-67
2022/01/12 07:39:58;;;;;;;;;;;3.50;43.40;;;;;;5077420;28;19912;-71
2022/01/12 07:42:24;;;;;;;;;;;3.60;42.90;;;;;;5090404;28;19916;-67
2022/01/12 07:44:49;;;;;;;;;;;3.60;42.80;;;;;;5089415;28;19913;-66
2022/01/12 07:47:15;;;;;;;;;;;3.70;42.80;;;;;;5084821;28;19916;-63
2022/01/12 07:49:41;;;;;;;;;;;3.70;42.90;;;;;;5080302;28;19909;-64
2022/01/12 07:52:06;;;;;;;;;;;3.70;43.10;;;;;;5074795;28;20349;-62
2022/01/12 07:54:32;;;;;;;;;;;3.90;42.50;;;;;;5074464;28;20395;-63
2022/01/12 07:56:58;;;;;;;;;;;3.90;42.20;;;;;;5075894;28;20065;-69
2022/01/12 07:59:24;;;;;;;;;;;3.90;42.10;;;;;;5075278;28;19909;-67
2022/01/12 08:01:49;;;;;;;;;;;4.00;42.10;;;;;;5076054;28;20489;-66
2022/01/12 08:04:15;;;;;;;;;;;4.00;42.00;;;;;;5075985;28;19944;-64
2022/01/12 08:06:40;;;;;;;;;;;4.00;42.40;;;;;;5075963;28;20267;-65
2022/01/12 08:09:07;;;;;;;;;;;4.00;42.00;;;;;;5077497;28;20487;-66
2022/01/12 08:11:35;;;;;;;;;;;4.10;41.70;;;;;;5078436;28;19921;-64
2022/01/12 08:14:01;;;;;;;;;;;4.10;41.60;;;;;;5088865;28;19908;-66
2022/01/12 08:16:26;;;;;;;;;;;4.10;41.50;;;;;;5095463;28;19912;-63
2022/01/12 08:18:52;;;;;;;;;;;4.10;41.40;;;;;;5081787;28;19999;-60
2022/01/12 08:21:18;;;;;;;;;;;4.30;40.90;;;;;;5096093;28;19927;-64
2022/01/12 08:23:43;;;;;;;;;;;4.40;40.20;;;;;;5092027;28;19913;-64
2022/01/12 08:26:09;;;;;;;;;;;4.40;40.30;;;;;;5084280;28;19908;-65
2022/01/12 08:28:35;;;;;;;;;;;4.50;40.60;;;;;;5080353;28;19915;-64
2022/01/12 08:31:00;;;;;;;;;;;4.60;40.30;;;;;;5095479;28;19923;-69
2022/01/12 08:33:26;;;;;;;;;;;4.70;40.20;;;;;;5095645;28;20276;-63
2022/01/12 08:35:52;;;;;;;;;;;4.80;40.20;;;;;;5095630;28;19912;-64
2022/01/12 08:38:17;;;;;;;;;;;4.90;39.40;;;;;;5100148;28;20356;-64
2022/01/12 08:40:43;;;;;;;;;;;4.80;39.60;;;;;;5095337;28;19953;-64
2022/01/12 08:43:09;;;;;;;;;;;4.90;39.80;;;;;;5085244;28;19919;-63
2022/01/12 08:45:34;;;;;;;;;;;5.10;39.40;;;;;;5091399;28;19915;-65
2022/01/12 08:48:00;;;;;;;;;;;5.10;39.30;;;;;;5107908;28;19908;-65
2022/01/12 08:50:26;;;;;;;;;;;5.30;39.40;;;;;;5095072;28;19908;-66
2022/01/12 08:52:51;;;;;;;;;;;5.30;39.00;;;;;;5094806;28;19977;-65
2022/01/12 08:55:18;;;;;;;;;;;5.70;42.90;;;;;;5095281;28;19915;-65
2022/01/12 08:57:44;;;;;;;;;;;5.70;38.60;;;;;;5098718;28;19912;-63
2022/01/12 09:00:10;;;;;;;;;;;5.80;38.70;;;;;;5102673;28;19965;-61
2022/01/12 09:02:36;;;;;;;;;;;5.90;38.00;;;;;;5090026;28;19947;-63
2022/01/12 09:05:01;;;;;;;;;;;5.80;37.40;;;;;;5086189;28;19923;-62
2022/01/12 09:07:27;;;;;;;;;;;5.90;37.30;;;;;;5089614;28;19955;-65
2022/01/12 09:09:52;;;;;;;;;;;6.00;36.90;;;;;;5092900;28;20391;-63
2022/01/12 09:12:18;;;;;;;;;;;6.00;36.30;;;;;;5090946;28;19938;-66
2022/01/12 09:14:44;;;;;;;;;;;5.70;36.30;;;;;;5106441;28;19947;-65
2022/01/12 09:17:18;;;;;;;;;;;5.70;40.20;;;;;;5094961;28;19916;-68
2022/01/12 09:19:45;;;;;;;;;;;6.00;36.10;;;;;;5112683;28;19922;-68
2022/01/12 09:22:10;;;;;;;;;;;6.10;34.80;;;;;;5113238;28;19912;-63
2022/01/12 09:24:36;;;;;;;;;;;6.10;34.40;;;;;;5108528;28;19916;-63
2022/01/12 09:27:01;;;;;;;;;;;6.20;35.00;;;;;;5095611;28;19897;-64
2022/01/12 09:29:27;;;;;;;;;;;6.20;34.50;;;;;;5089133;28;20391;-64
2022/01/12 09:31:53;;;;;;;;;;;6.30;34.40;;;;;;5088943;28;19920;-63
2022/01/12 09:34:18;;;;;;;;;;;6.40;33.80;;;;;;5094268;28;19912;-62
2022/01/12 09:36:44;;;;;;;;;;;6.50;33.60;;;;;;5094293;28;19911;-62
2022/01/12 09:39:09;;;;;;;;;;;6.50;32.40;;;;;;5094689;28;19908;-62
2022/01/12 09:41:35;;;;;;;;;;;6.50;33.20;;;;;;5094328;28;19970;-62
2022/01/12 09:44:02;;;;;;;;;;;6.50;33.50;;;;;;5088994;28;20287;-62
2022/01/12 09:46:27;;;;;;;;;;;6.70;34.00;;;;;;5085004;28;20298;-68
2022/01/12 09:48:53;;;;;;;;;;;6.80;32.80;;;;;;5093568;28;19967;-68
2022/01/12 09:51:19;;;;;;;;;;;6.80;32.50;;;;;;5094147;28;20014;-67
2022/01/12 09:53:45;;;;;;;;;;;6.70;32.40;;;;;;5093824;28;19912;-66
2022/01/12 09:56:20;;;;;;;;;;;6.80;33.30;;;;;;5093725;28;19912;-68
2022/01/12 09:58:47;;;;;;;;;;;7.00;32.60;;;;;;5094081;28;19920;-66
2022/01/12 10:01:21;;;;;;;;;;;7.00;31.90;;;;;;5099747;28;19956;-66
2022/01/12 10:03:46;;;;;;;;;;;7.00;32.20;;;;;;5098645;28;20018;-70
2022/01/12 10:06:13;;;;;;;;;;;7.10;32.00;;;;;;5104365;28;19948;-67
2022/01/12 10:08:39;;;;;;;;;;;7.20;31.30;;;;;;5088880;28;19938;-62
2022/01/12 10:11:05;;;;;;;;;;;7.20;31.00;;;;;;5093465;28;20275;-66
2022/01/12 10:13:31;;;;;;;;;;;7.30;31.20;;;;;;5093584;28;20522;-65
2022/01/12 10:15:57;;;;;;;;;;;7.30;31.50;;;;;;5094072;28;19932;-67
2022/01/12 10:18:23;;;;;;;;;;;7.30;31.10;;;;;;5098323;28;19955;-67
2022/01/12 10:20:49;;;;;;;;;;;7.40;30.20;;;;;;5093208;28;19958;-69
2022/01/12 10:23:15;;;;;;;;;;;7.50;30.40;;;;;;5093147;28;20367;-67
2022/01/12 10:25:48;;;;;;;;;;;7.50;29.10;;;;;;5093012;28;19908;-65
2022/01/12 10:28:13;;;;;;;;;;;7.50;29.90;;;;;;5093260;28;19912;-66
2022/01/12 10:30:39;;;;;;;;;;;7.60;29.60;;;;;;5084441;28;20299;-62
2022/01/12 10:33:08;;;;;;;;;;;7.60;28.50;;;;;;5072387;28;20123;-67
2022/01/12 10:35:34;;;;;;;;;;;7.60;28.10;;;;;;5073109;28;19913;-65
2022/01/12 10:38:06;;;;;;;;;;;7.50;29.30;;;;;;5072989;28;19954;-63
2022/01/12 10:40:42;;;;;;;;;;;7.80;29.20;;;;;;5073212;28;19909;-67
2022/01/12 10:43:23;;;;;;;;;;;7.80;28.50;;;;;;5073038;28;19916;-64
2022/01/12 10:45:49;;;;;;;;;;;7.70;28.00;;;;;;5073065;28;19959;-63
2022/01/12 10:48:14;;;;;;;;;;;7.80;28.00;;;;;;5072751;28;19909;-63
2022/01/12 10:50:40;;;;;;;;;;;7.90;27.60;;;;;;5071781;28;19939;-64
2022/01/12 10:53:05;;;;;;;;;;;8.00;28.20;;;;;;5072940;28;19931;-63
2022/01/12 10:55:31;;;;;;;;;;;8.10;28.10;;;;;;5073058;28;19917;-64
2022/01/12 10:57:59;;;;;;;;;;;8.20;28.60;;;;;;5072871;28;19937;-63
2022/01/12 11:00:26;;;;;;;;;;;8.20;29.00;;;;;;5072920;28;20402;-63
2022/01/12 11:02:55;;;;;;;;;;;8.30;28.40;;;;;;5072805;28;20370;-62
2022/01/12 11:05:22;;;;;;;;;;;8.30;28.00;;;;;;5072680;28;19909;-63
2022/01/12 11:07:48;;;;;;;;;;;8.20;28.00;;;;;;5072787;28;19915;-62
2022/01/12 11:10:14;;;;;;;;;;;8.20;28.80;;;;;;5073051;28;19908;-63
2022/01/12 11:12:40;;;;;;;;;;;8.30;28.40;;;;;;5072835;28;20271;-63
2022/01/12 11:15:07;;;;;;;;;;;8.40;28.80;;;;;;5072643;28;19908;-64
2022/01/12 11:17:33;;;;;;;;;;;8.60;29.10;;;;;;5072564;28;20347;-64
2022/01/12 11:20:02;;;;;;;;;;;8.70;28.30;;;;;;5075223;28;19908;-63
2022/01/12 11:22:27;;;;;;;;;;;8.80;27.60;;;;;;5074730;28;19919;-63
2022/01/12 11:24:54;;;;;;;;;;;8.50;27.80;;;;;;5072623;28;19908;-62
2022/01/12 11:27:21;;;;;;;;;;;8.40;29.10;;;;;;5082993;28;19912;-62
2022/01/12 11:29:47;;;;;;;;;;;8.40;28.90;;;;;;5083363;28;19931;-60
2022/01/12 11:32:20;;;;;;;;;;;8.20;29.30;;;;;;5072351;28;19920;-60
2022/01/12 11:34:46;;;;;;;;;;;8.40;29.70;;;;;;5074567;28;19913;-61
2022/01/12 11:37:12;;;;;;;;;;;8.60;29.70;;;;;;5076523;28;19908;-61
2022/01/12 11:39:38;;;;;;;;;;;8.60;30.10;;;;;;5076515;28;19958;-61
2022/01/12 11:42:03;;;;;;;;;;;8.50;30.50;;;;;;5076217;28;19955;-62
2022/01/12 11:44:33;;;;;;;;;;;8.70;30.60;;;;;;5076190;28;19909;-62
2022/01/12 11:46:59;;;;;;;;;;;8.60;30.00;;;;;;5076123;28;19923;-60
2022/01/12 11:49:37;;;;;;;;;;;8.50;30.00;;;;;;5076190;28;19908;-62
2022/01/12 11:52:32;;;;;;;;;;;8.60;30.00;;;;;;5074168;28;19922;-62
2022/01/12 11:55:11;;;;;;;;;;;8.60;30.20;;;;;;5066875;28;19908;-64
2022/01/12 11:57:38;;;;;;;;;;;8.50;30.50;;;;;;5076288;28;20276;-62
2022/01/12 12:00:20;;;;;;;;;;;8.40;31.30;;;;;;5076006;28;19914;-61
2022/01/12 12:02:51;;;;;;;;;;;8.40;31.90;;;;;;5075980;28;20267;-61
2022/01/12 12:05:21;;;;;;;;;;;8.30;30.70;;;;;;5075755;28;19908;-63
2022/01/12 12:07:53;;;;;;;;;;;8.30;30.70;;;;;;5075867;28;19994;-62
2022/01/12 12:10:20;;;;;;;;;;;8.00;31.30;;;;;;5075676;28;19912;-62
2022/01/12 12:12:47;;;;;;;;;;;8.20;30.90;;;;;;5075652;28;20360;-64
2022/01/12 12:15:13;;;;;;;;;;;8.30;31.50;;;;;;5075667;28;19908;-65
2022/01/12 12:17:40;;;;;;;;;;;8.30;32.40;;;;;;5075609;28;19986;-64
2022/01/12 12:20:06;;;;;;;;;;;8.20;32.40;;;;;;5075384;28;19912;-65
2022/01/12 12:22:33;;;;;;;;;;;8.30;32.20;;;;;;5075399;28;19908;-64
2022/01/12 12:25:04;;;;;;;;;;;8.40;32.10;;;;;;5075724;28;20085;-63
2022/01/12 12:27:30;;;;;;;;;;;8.50;31.90;;;;;;5075501;28;19909;-65
2022/01/12 12:29:56;;;;;;;;;;;8.50;32.00;;;;;;5075219;28;19958;-64
2022/01/12 12:32:34;;;;;;;;;;;8.50;31.90;;;;;;5074509;28;19917;-66
2022/01/12 12:35:00;;;;;;;;;;;8.60;31.30;;;;;;5074758;28;19923;-66
2022/01/12 12:37:32;;;;;;;;;;;8.70;36.30;;;;;;5075196;28;19916;-65
2022/01/12 12:39:58;;;;;;;;;;;8.60;32.90;;;;;;5075076;28;19916;-68
2022/01/12 12:42:23;;;;;;;;;;;8.70;32.20;;;;;;5075266;28;19909;-62
2022/01/12 12:44:55;;;;;;;;;;;8.80;31.50;;;;;;5074523;28;19908;-61
2022/01/12 12:47:21;;;;;;;;;;;8.60;31.40;;;;;;5075153;28;19909;-61
2022/01/12 12:49:56;;;;;;;;;;;8.30;31.50;;;;;;5074960;28;19916;-64
2022/01/12 12:52:27;;;;;;;;;;;8.30;31.10;;;;;;5074674;28;19924;-64
2022/01/12 12:54:53;;;;;;;;;;;8.10;30.90;;;;;;5074962;28;19914;-62
2022/01/12 12:57:21;;;;;;;;;;;8.00;31.30;;;;;;5074684;28;20354;-61
2022/01/12 12:59:47;;;;;;;;;;;7.90;32.20;;;;;;5074509;28;20051;-68
2022/01/12 13:02:14;;;;;;;;;;;8.00;32.40;;;;;;5073563;28;20116;-65
2022/01/12 13:04:40;;;;;;;;;;;8.00;32.30;;;;;;5073333;28;20003;-64
2022/01/12 13:07:13;;;;;;;;;;;8.10;32.60;;;;;;5074283;28;19952;-64
2022/01/12 13:09:38;;;;;;;;;;;8.10;32.20;;;;;;5074037;28;19958;-66
2022/01/12 13:12:04;;;;;;;;;;;8.20;32.50;;;;;;5074387;28;19963;-69
2022/01/12 13:14:40;;;;;;;;;;;8.20;32.20;;;;;;5074674;28;20380;-67
2022/01/12 13:17:05;;;;;;;;;;;8.10;32.50;;;;;;5084514;28;19931;-71
2022/01/12 13:22:33;;;;;;;;;;;8.00;32.50;;;;;;5087716;28;20004;-65
2022/01/12 13:24:59;;;;;;;;;;;7.90;32.20;;;;;;5090733;28;19908;-64
2022/01/12 13:27:26;;;;;;;;;;;7.70;32.90;;;;;;5088434;28;19912;-67
2022/01/12 13:29:52;;;;;;;;;;;7.60;32.90;;;;;;5073934;28;20276;-66
2022/01/12 13:32:17;;;;;;;;;;;7.70;32.10;;;;;;5074887;28;19927;-67
2022/01/12 13:34:56;;;;;;;;;;;7.70;32.10;;;;;;5074408;28;19909;-65
2022/01/12 13:37:22;;;;;;;;;;;7.80;31.90;;;;;;5074332;28;19908;-71
2022/01/12 13:39:48;;;;;;;;;;;7.60;32.80;;;;;;5073716;28;20007;-73
2022/01/12 13:42:13;;;;;;;;;;;7.70;33.50;;;;;;5073442;28;19934;-68
2022/01/12 13:44:39;;;;;;;;;;;7.70;33.20;;;;;;5073243;28;19934;-70
2022/01/12 13:47:11;;;;;;;;;;;7.60;33.30;;;;;;5073604;28;19912;-63
2022/01/12 13:49:36;;;;;;;;;;;7.60;33.20;;;;;;5073587;28;19962;-71
2022/01/12 13:52:02;;;;;;;;;;;7.80;33.30;;;;;;5073101;28;20022;-68
2022/01/12 13:54:37;;;;;;;;;;;7.80;33.70;;;;;;5073202;28;19909;-64
2022/01/12 13:57:03;;;;;;;;;;;7.90;33.80;;;;;;5072814;28;19916;-64
2022/01/12 13:59:30;;;;;;;;;;;7.70;33.60;;;;;;5073780;28;19912;-70
2022/01/12 14:01:57;;;;;;;;;;;7.70;33.30;;;;;;5073352;28;19916;-67
2022/01/12 14:04:39;;;;;;;;;;;7.50;34.10;;;;;;5073190;28;19920;-65
2022/01/12 14:07:07;;;;;;;;;;;7.60;33.30;;;;;;5074009;28;19916;-63
2022/01/12 14:09:39;;;;;;;;;;;7.60;32.40;;;;;;5072923;28;20005;-61
2022/01/12 14:12:11;;;;;;;;;;;7.60;32.10;;;;;;5075213;28;19916;-66
2022/01/12 14:15:03;;;;;;;;;;;7.60;31.70;;;;;;5075598;28;20360;-65
2022/01/12 14:17:29;;;;;;;;;;;7.50;31.80;;;;;;5073415;28;19992;-68
2022/01/12 14:20:05;;;;;;;;;;;7.50;32.10;;;;;;5075646;28;20382;-64
2022/01/12 14:22:41;;;;;;;;;;;7.30;34.00;;;;;;5087592;28;19912;-63
2022/01/12 14:25:06;;;;;;;;;;;7.30;33.20;;;;;;5073241;28;19908;-61
2022/01/12 14:27:45;;;;;;;;;;;7.20;33.70;;;;;;5071429;28;20447;-63
2022/01/12 14:30:13;;;;;;;;;;;7.30;33.50;;;;;;5071392;28;20380;-65
2022/01/12 14:32:40;;;;;;;;;;;7.30;33.00;;;;;;5071341;28;19921;-64
2022/01/12 14:35:10;;;;;;;;;;;7.40;32.80;;;;;;5071380;28;19952;-67
2022/01/12 14:37:36;;;;;;;;;;;7.30;32.80;;;;;;5073719;28;19935;-66
2022/01/12 14:40:03;;;;;;;;;;;7.20;33.30;;;;;;5074688;28;19908;-65
2022/01/12 14:42:29;;;;;;;;;;;7.10;33.80;;;;;;5074284;28;19917;-64
2022/01/12 14:44:54;;;;;;;;;;;7.20;33.90;;;;;;5069982;28;19908;-64
2022/01/12 14:47:20;;;;;;;;;;;7.00;34.30;;;;;;5071763;28;19934;-65
2022/01/12 14:49:46;;;;;;;;;;;7.10;34.50;;;;;;5076492;28;20452;-66
2022/01/12 14:52:11;;;;;;;;;;;7.10;34.50;;;;;;5070105;28;19923;-66
2022/01/12 14:54:37;;;;;;;;;;;6.90;35.70;;;;;;5073096;28;19913;-65
2022/01/12 14:57:03;;;;;;;;;;;7.10;35.00;;;;;;5073728;28;19915;-64
2022/01/12 14:59:29;;;;;;;;;;;7.10;35.10;;;;;;5070329;28;20003;-63
2022/01/12 15:01:54;;;;;;;;;;;6.90;35.30;;;;;;5070755;28;20424;-64
2022/01/12 15:04:26;;;;;;;;;;;6.70;36.30;;;;;;5074102;28;19917;-63
2022/01/12 15:06:52;;;;;;;;;;;6.50;37.10;;;;;;5080988;28;19908;-63
2022/01/12 15:09:18;;;;;;;;;;;6.50;37.50;;;;;;5093983;28;19915;-65
2022/01/12 15:11:45;;;;;;;;;;;6.40;38.10;;;;;;5075967;28;20286;-64
2022/01/12 15:14:57;;;;;;;;;;;6.40;38.00;;;;;;5084631;28;19903;-65
2022/01/12 15:16:57;;;;;;;;;;;6.30;38.50;;;;;;5112710;28;19899;-62
2022/01/12 15:19:23;;;;;;;;;;;6.30;38.80;;;;;;5105443;28;19908;-61
2022/01/12 15:21:48;;;;;;;;;;;6.10;38.90;;;;;;5088047;28;20423;-61
2022/01/12 15:24:14;;;;;;;;;;;6.10;38.50;;;;;;5079675;28;19912;-65
2022/01/12 15:26:40;;;;;;;;;;;6.10;38.80;;;;;;5077156;28;20295;-58
2022/01/12 15:29:05;;;;;;;;;;;6.10;38.40;;;;;;5078155;28;19913;-61
2022/01/12 15:31:31;;;;;;;;;;;6.10;38.20;;;;;;5078342;28;19920;-64
2022/01/12 15:33:56;;;;;;;;;;;6.00;37.80;;;;;;5077004;28;19908;-61
2022/01/12 15:36:22;;;;;;;;;;;5.90;38.10;;;;;;5083424;28;19934;-64
2022/01/12 15:38:48;;;;;;;;;;;5.80;38.40;;;;;;5075708;28;20364;-62
2022/01/12 15:41:13;;;;;;;;;;;5.90;37.90;;;;;;5085055;28;20245;-63
2022/01/12 15:43:39;;;;;;;;;;;5.90;38.00;;;;;;5095189;28;19912;-61
2022/01/12 15:46:04;;;;;;;;;;;5.80;38.10;;;;;;5095099;28;19966;-60
2022/01/12 15:48:30;;;;;;;;;;;5.80;37.90;;;;;;5094794;28;19919;-60
2022/01/12 15:50:55;;;;;;;;;;;5.70;38.10;;;;;;5094924;28;19912;-67
2022/01/12 15:53:21;;;;;;;;;;;5.80;37.90;;;;;;5086937;28;19919;-62